Time;durP1;ratioP1;P1;durP2;ratioP2;P2;SDS_P1;SDS_P2;PMS_P1;PMS_P2;Temp;Humidity;BMP_temperature;BMP_pressure;BME280_temperature;BME280_humidity;BME280_pressure;Samples;Min_cycle;Max_cycle;Signal;HPM_P1;HPM_P2
2021/05/10 00:01:01;;;;;;;24.25;12.60;;;;;;;;;;4968431;28;20045;-61
2021/05/10 00:03:29;;;;;;;24.05;12.23;;;;;;;;;;4969378;28;20108;-59
2021/05/10 00:05:55;;;;;;;22.02;12.93;;;;;;;;;;4968105;28;20160;-60
2021/05/10 00:08:22;;;;;;;23.08;11.77;;;;;;;;;;4968027;28;20498;-60
2021/05/10 00:10:49;;;;;;;23.83;11.60;;;;;;;;;;4969845;28;20141;-59
2021/05/10 00:13:17;;;;;;;20.17;11.63;;;;;;;;;;4969243;28;20018;-60
2021/05/10 00:15:48;;;;;;;23.08;12.32;;;;;;;;;;4969285;28;20038;-60
2021/05/10 00:18:19;;;;;;;23.55;11.40;;;;;;;;;;4968223;28;20046;-60
2021/05/10 00:20:46;;;;;;;24.77;11.60;;;;;;;;;;4968382;28;20034;-59
2021/05/10 00:23:14;;;;;;;25.65;11.52;;;;;;;;;;4982102;28;20042;-60
2021/05/10 00:25:40;;;;;;;21.75;11.13;;;;;;;;;;4968226;28;20033;-59
2021/05/10 00:28:06;;;;;;;23.30;11.90;;;;;;;;;;4968241;28;20061;-60
2021/05/10 00:30:33;;;;;;;24.70;11.90;;;;;;;;;;4967843;28;20382;-60
2021/05/10 00:33:01;;;;;;;22.80;11.88;;;;;;;;;;4970508;28;20050;-60
2021/05/10 00:35:27;;;;;;;25.02;11.85;;;;;;;;;;4968891;28;20060;-60
2021/05/10 00:37:53;;;;;;;22.20;12.07;;;;;;;;;;4970930;28;20401;-60
2021/05/10 00:40:23;;;;;;;27.55;13.05;;;;;;;;;;4948846;28;20920;-61
2021/05/10 00:42:54;;;;;;;27.52;12.88;;;;;;;;;;4951870;28;20030;-60
2021/05/10 00:45:22;;;;;;;30.35;11.98;;;;;;;;;;4952366;28;20051;-60
2021/05/10 00:47:50;;;;;;;27.27;12.88;;;;;;;;;;4971191;28;20034;-61
2021/05/10 00:50:17;;;;;;;22.90;12.77;;;;;;;;;;4973954;28;20042;-60
2021/05/10 00:52:42;;;;;;;25.50;12.98;;;;;;;;;;4970823;28;20145;-60
2021/05/10 00:55:09;;;;;;;22.13;12.60;;;;;;;;;;4971323;28;20196;-60
2021/05/10 00:58:01;;;;;;;23.25;13.23;;;;;;;;;;4971896;28;20031;-60
2021/05/10 01:00:27;;;;;;;26.77;13.93;;;;;;;;;;4971211;28;20038;-61
2021/05/10 01:02:54;;;;;;;22.30;12.52;;;;;;;;;;4971179;28;20034;-60
2021/05/10 01:05:22;;;;;;;32.08;13.27;;;;;;;;;;4953931;28;20045;-60
2021/05/10 01:07:47;;;;;;;23.77;13.07;;;;;;;;;;4972515;28;21005;-60
2021/05/10 01:10:17;;;;;;;24.90;12.77;;;;;;;;;;4969642;28;20508;-60
2021/05/10 01:12:44;;;;;;;36.35;13.45;;;;;;;;;;4966524;28;20038;-60
2021/05/10 01:15:11;;;;;;;27.10;12.15;;;;;;;;;;4971343;28;20031;-60
2021/05/10 01:17:40;;;;;;;24.92;13.27;;;;;;;;;;4955034;28;20708;-60
2021/05/10 01:20:07;;;;;;;24.98;12.43;;;;;;;;;;4983646;28;20044;-60
2021/05/10 01:22:46;;;;;;;30.52;12.93;;;;;;;;;;4970954;28;20030;-61
2021/05/10 01:25:13;;;;;;;25.33;13.15;;;;;;;;;;4970177;28;20045;-60
2021/05/10 01:27:41;;;;;;;24.35;13.40;;;;;;;;;;4951700;28;20033;-60
2021/05/10 01:30:08;;;;;;;30.67;12.93;;;;;;;;;;4970092;28;20157;-62
2021/05/10 01:32:34;;;;;;;24.45;12.55;;;;;;;;;;4970606;28;20054;-60
2021/05/10 01:35:03;;;;;;;22.73;13.23;;;;;;;;;;4969033;28;20038;-62
2021/05/10 01:37:28;;;;;;;28.52;13.65;;;;;;;;;;4971272;28;20049;-61
2021/05/10 01:39:54;;;;;;;23.13;12.13;;;;;;;;;;4971327;28;20038;-60
2021/05/10 01:42:20;;;;;;;22.38;11.73;;;;;;;;;;4971159;28;20061;-60
2021/05/10 01:44:50;;;;;;;24.40;11.93;;;;;;;;;;4952830;28;20045;-60
2021/05/10 01:47:16;;;;;;;25.83;13.82;;;;;;;;;;4971744;28;20061;-60
2021/05/10 01:49:48;;;;;;;27.13;13.25;;;;;;;;;;4970448;28;20173;-59
2021/05/10 01:52:14;;;;;;;23.30;13.02;;;;;;;;;;4974308;28;20031;-60
2021/05/10 01:54:49;;;;;;;25.42;12.88;;;;;;;;;;4969706;28;20125;-60
2021/05/10 01:57:22;;;;;;;28.92;14.27;;;;;;;;;;4980862;28;20036;-60
2021/05/10 01:59:51;;;;;;;22.10;12.07;;;;;;;;;;4970839;28;20065;-60
2021/05/10 02:02:16;;;;;;;28.77;13.00;;;;;;;;;;4938080;28;20050;-60
2021/05/10 02:05:01;;;;;;;23.92;12.27;;;;;;;;;;4970747;28;20057;-60
2021/05/10 02:07:26;;;;;;;28.48;12.65;;;;;;;;;;4969463;28;20249;-60
2021/05/10 02:09:51;;;;;;;25.73;12.90;;;;;;;;;;4986306;28;20931;-60
2021/05/10 02:12:17;;;;;;;30.70;13.30;;;;;;;;;;4969397;28;22000;-60
2021/05/10 02:14:45;;;;;;;30.30;14.20;;;;;;;;;;4952997;28;20093;-59
2021/05/10 02:17:11;;;;;;;27.63;13.65;;;;;;;;;;4968528;28;20045;-60
2021/05/10 02:19:39;;;;;;;27.30;13.68;;;;;;;;;;4970499;28;20034;-61
2021/05/10 02:22:05;;;;;;;26.00;12.60;;;;;;;;;;4938666;28;20577;-59
2021/05/10 02:24:31;;;;;;;29.38;13.18;;;;;;;;;;4970700;28;20029;-59
2021/05/10 02:27:09;;;;;;;30.05;13.60;;;;;;;;;;4954906;28;20188;-60
2021/05/10 02:29:35;;;;;;;24.88;12.98;;;;;;;;;;4969493;28;20037;-59
2021/05/10 02:32:01;;;;;;;27.60;12.07;;;;;;;;;;4971129;28;20039;-59
2021/05/10 02:34:26;;;;;;;27.27;13.38;;;;;;;;;;4968294;28;20046;-60
2021/05/10 02:36:52;;;;;;;23.98;12.07;;;;;;;;;;4970077;28;20722;-60
2021/05/10 02:39:17;;;;;;;23.95;12.75;;;;;;;;;;4968841;28;20030;-59
2021/05/10 02:41:43;;;;;;;29.67;13.98;;;;;;;;;;4984755;28;20042;-60
2021/05/10 02:44:08;;;;;;;27.17;13.27;;;;;;;;;;4970603;28;20037;-60
2021/05/10 02:46:34;;;;;;;23.35;12.82;;;;;;;;;;4983672;28;20045;-61
2021/05/10 02:49:02;;;;;;;26.05;13.95;;;;;;;;;;4968357;28;20108;-60
2021/05/10 02:51:30;;;;;;;24.13;14.25;;;;;;;;;;4964870;28;20026;-59
2021/05/10 02:53:58;;;;;;;26.45;13.27;;;;;;;;;;4970614;28;20026;-60
2021/05/10 02:56:23;;;;;;;27.23;14.02;;;;;;;;;;4954061;28;20057;-59
2021/05/10 02:58:49;;;;;;;33.45;14.23;;;;;;;;;;4949996;28;20161;-60
2021/05/10 03:01:18;;;;;;;34.10;13.00;;;;;;;;;;4984489;28;20125;-60
2021/05/10 03:03:47;;;;;;;20.70;12.48;;;;;;;;;;4971420;28;20904;-60
2021/05/10 03:06:14;;;;;;;24.85;12.82;;;;;;;;;;4966932;28;20137;-60
2021/05/10 03:08:42;;;;;;;27.92;11.85;;;;;;;;;;4985749;28;20552;-60
2021/05/10 03:11:07;;;;;;;27.38;13.52;;;;;;;;;;4983296;28;20821;-60
2021/05/10 03:13:33;;;;;;;22.98;12.43;;;;;;;;;;4952765;28;20030;-60
2021/05/10 03:15:59;;;;;;;20.80;11.90;;;;;;;;;;4968808;28;20092;-59
2021/05/10 03:18:24;;;;;;;23.45;12.60;;;;;;;;;;4952536;28;20045;-60
2021/05/10 03:20:53;;;;;;;25.30;13.18;;;;;;;;;;4968782;28;20022;-60
2021/05/10 03:23:18;;;;;;;22.70;13.20;;;;;;;;;;4968092;28;20129;-62
2021/05/10 03:25:46;;;;;;;28.05;13.82;;;;;;;;;;4952627;28;20504;-60
2021/05/10 03:28:14;;;;;;;22.83;13.05;;;;;;;;;;4968833;28;20030;-59
2021/05/10 03:30:40;;;;;;;21.13;12.18;;;;;;;;;;4968786;28;20061;-59
2021/05/10 03:33:07;;;;;;;23.92;12.88;;;;;;;;;;4984641;28;20047;-59
2021/05/10 03:35:33;;;;;;;32.22;14.00;;;;;;;;;;4951744;28;20529;-60
2021/05/10 03:37:58;;;;;;;26.30;14.13;;;;;;;;;;4969745;28;20060;-60
2021/05/10 03:40:24;;;;;;;26.75;13.60;;;;;;;;;;4968046;28;20117;-59
2021/05/10 03:42:49;;;;;;;27.17;14.45;;;;;;;;;;4969101;28;20045;-61
2021/05/10 03:45:15;;;;;;;24.23;14.30;;;;;;;;;;4966363;28;20289;-59
2021/05/10 03:47:44;;;;;;;27.15;12.73;;;;;;;;;;4951715;28;20030;-60
2021/05/10 03:50:10;;;;;;;25.95;13.38;;;;;;;;;;4984195;28;20030;-59
2021/05/10 03:52:36;;;;;;;28.10;13.52;;;;;;;;;;4966344;28;20069;-58
2021/05/10 03:55:02;;;;;;;23.60;14.27;;;;;;;;;;4969288;28;20140;-59
2021/05/10 03:57:27;;;;;;;28.63;15.18;;;;;;;;;;4952592;28;20022;-59
2021/05/10 03:59:58;;;;;;;35.20;15.23;;;;;;;;;;4982841;28;20810;-62
2021/05/10 04:02:23;;;;;;;26.05;15.23;;;;;;;;;;4967274;28;20038;-60
2021/05/10 04:05:10;;;;;;;33.55;14.95;;;;;;;;;;4984062;28;20126;-60
2021/05/10 04:15:40;;;;;;;27.92;15.63;;;;;;;;;;4965108;28;20047;-59
2021/05/10 04:18:16;;;;;;;29.77;15.07;;;;;;;;;;4969228;28;20038;-59
2021/05/10 04:20:43;;;;;;;29.05;14.82;;;;;;;;;;4983880;28;20034;-60
2021/05/10 04:23:16;;;;;;;37.05;15.95;;;;;;;;;;4970123;28;20689;-60
2021/05/10 04:25:42;;;;;;;30.67;15.25;;;;;;;;;;4955407;28;20133;-60
2021/05/10 04:28:08;;;;;;;22.45;13.98;;;;;;;;;;4971709;28;20049;-59
2021/05/10 04:30:33;;;;;;;22.00;13.05;;;;;;;;;;4972127;28;20038;-59
2021/05/10 04:33:02;;;;;;;22.85;13.75;;;;;;;;;;4957412;28;20057;-60
2021/05/10 04:35:32;;;;;;;27.70;14.55;;;;;;;;;;4971701;28;20038;-60
2021/05/10 04:37:57;;;;;;;30.92;14.98;;;;;;;;;;4988831;28;20730;-58
2021/05/10 04:40:22;;;;;;;24.63;13.13;;;;;;;;;;4973731;28;20173;-61
2021/05/10 04:42:48;;;;;;;23.23;13.68;;;;;;;;;;4970779;28;20037;-60
2021/05/10 04:45:13;;;;;;;23.40;12.43;;;;;;;;;;4971426;28;20035;-59
2021/05/10 04:47:40;;;;;;;31.15;13.07;;;;;;;;;;4970738;28;20134;-59
2021/05/10 04:50:07;;;;;;;22.83;12.68;;;;;;;;;;4953804;28;20049;-59
2021/05/10 04:52:32;;;;;;;22.08;11.77;;;;;;;;;;4969952;28;20061;-60
2021/05/10 04:54:59;;;;;;;18.27;11.00;;;;;;;;;;4970906;28;22168;-60
2021/05/10 04:57:27;;;;;;;17.73;10.68;;;;;;;;;;4969467;28;20045;-60
2021/05/10 04:59:52;;;;;;;24.75;11.30;;;;;;;;;;4968475;28;20038;-60
2021/05/10 05:02:17;;;;;;;26.73;11.52;;;;;;;;;;4972605;28;20034;-62
2021/05/10 05:04:43;;;;;;;19.38;9.80;;;;;;;;;;4971626;28;20046;-59
2021/05/10 05:07:09;;;;;;;16.55;9.23;;;;;;;;;;4969768;28;20050;-60
2021/05/10 05:09:37;;;;;;;21.02;10.20;;;;;;;;;;4970832;28;20034;-59
2021/05/10 05:12:03;;;;;;;13.10;9.10;;;;;;;;;;4971606;28;20042;-59
2021/05/10 05:14:28;;;;;;;15.63;8.65;;;;;;;;;;4970013;28;20034;-59
2021/05/10 05:16:54;;;;;;;14.02;7.90;;;;;;;;;;4953197;28;20577;-60
2021/05/10 05:19:20;;;;;;;13.55;6.95;;;;;;;;;;4971288;28;22127;-59
2021/05/10 05:21:51;;;;;;;9.68;6.47;;;;;;;;;;4971290;28;20733;-59
2021/05/10 05:24:20;;;;;;;11.40;6.28;;;;;;;;;;4971314;28;20077;-60
2021/05/10 05:26:45;;;;;;;12.70;5.90;;;;;;;;;;4970946;28;20034;-59
2021/05/10 05:29:11;;;;;;;9.80;4.72;;;;;;;;;;4971390;28;20093;-58
2021/05/10 05:31:36;;;;;;;7.78;4.75;;;;;;;;;;4971851;28;20569;-59
2021/05/10 05:34:06;;;;;;;6.15;4.10;;;;;;;;;;4984980;28;20041;-59
2021/05/10 05:36:31;;;;;;;6.13;3.38;;;;;;;;;;4970967;28;20046;-60
2021/05/10 05:38:59;;;;;;;7.22;4.07;;;;;;;;;;4955141;28;20037;-59
2021/05/10 05:41:24;;;;;;;5.90;3.78;;;;;;;;;;4950364;28;20043;-59
2021/05/10 05:43:50;;;;;;;12.80;3.83;;;;;;;;;;4969835;28;20057;-60
2021/05/10 05:46:25;;;;;;;6.93;3.40;;;;;;;;;;4968363;28;20133;-60
2021/05/10 05:49:02;;;;;;;11.15;3.90;;;;;;;;;;4970045;28;20042;-61
2021/05/10 05:51:44;;;;;;;5.72;3.45;;;;;;;;;;4970452;28;20046;-62
2021/05/10 05:54:09;;;;;;;4.13;2.90;;;;;;;;;;4986049;28;20192;-61
2021/05/10 05:56:37;;;;;;;5.45;2.80;;;;;;;;;;4969467;28;20186;-60
2021/05/10 05:59:03;;;;;;;4.72;2.58;;;;;;;;;;4951914;28;20035;-61
2021/05/10 06:01:29;;;;;;;3.90;2.63;;;;;;;;;;4968159;28;20458;-61
2021/05/10 06:03:55;;;;;;;4.78;2.60;;;;;;;;;;4969598;28;20027;-59
2021/05/10 06:06:20;;;;;;;9.80;2.72;;;;;;;;;;4969158;28;20049;-61
2021/05/10 06:08:46;;;;;;;3.22;2.42;;;;;;;;;;4952680;28;20038;-60
2021/05/10 06:11:14;;;;;;;3.40;2.03;;;;;;;;;;4984136;28;20037;-62
2021/05/10 06:13:40;;;;;;;7.18;2.05;;;;;;;;;;4969202;28;20030;-62
2021/05/10 06:16:07;;;;;;;2.25;1.60;;;;;;;;;;4967085;28;20501;-61
2021/05/10 06:18:32;;;;;;;1.33;1.10;;;;;;;;;;4968266;28;20121;-61
2021/05/10 06:21:02;;;;;;;4.05;1.42;;;;;;;;;;4951432;28;20686;-62
2021/05/10 06:23:28;;;;;;;3.70;1.48;;;;;;;;;;4968604;28;20092;-61
2021/05/10 06:25:53;;;;;;;4.07;1.58;;;;;;;;;;4985103;28;20466;-61
2021/05/10 06:28:19;;;;;;;4.13;1.40;;;;;;;;;;4970990;28;20030;-61
2021/05/10 06:30:47;;;;;;;3.90;1.15;;;;;;;;;;4950854;28;20034;-60
2021/05/10 06:33:16;;;;;;;5.50;1.63;;;;;;;;;;4968237;28;20972;-61
2021/05/10 06:35:41;;;;;;;1.48;1.23;;;;;;;;;;4968487;28;20074;-60
2021/05/10 06:38:13;;;;;;;2.85;1.30;;;;;;;;;;4952089;28;20098;-57
2021/05/10 06:40:41;;;;;;;3.70;1.17;;;;;;;;;;4967833;28;20070;-62
2021/05/10 06:43:13;;;;;;;1.15;1.05;;;;;;;;;;4969585;28;20783;-63
2021/05/10 06:45:40;;;;;;;1.90;1.30;;;;;;;;;;4968909;28;20042;-61
2021/05/10 06:48:05;;;;;;;1.92;1.20;;;;;;;;;;4968933;28;20038;-61
2021/05/10 06:50:33;;;;;;;4.68;1.20;;;;;;;;;;4968799;28;20074;-61
2021/05/10 06:53:04;;;;;;;5.38;0.90;;;;;;;;;;4937297;28;20039;-61
2021/05/10 06:55:35;;;;;;;2.35;1.27;;;;;;;;;;4964355;28;20022;-59
2021/05/10 06:58:08;;;;;;;4.80;1.45;;;;;;;;;;4984665;28;20034;-61
2021/05/10 07:00:34;;;;;;;2.80;0.88;;;;;;;;;;4967802;28;20044;-62
2021/05/10 07:03:02;;;;;;;1.25;1.10;;;;;;;;;;4968083;28;20482;-61
2021/05/10 07:05:32;;;;;;;4.60;1.10;;;;;;;;;;4954645;28;20047;-61
2021/05/10 07:07:58;;;;;;;2.25;0.98;;;;;;;;;;4969668;28;20034;-60
2021/05/10 07:10:23;;;;;;;8.30;1.40;;;;;;;;;;4970798;28;20113;-61
2021/05/10 07:12:52;;;;;;;3.53;1.40;;;;;;;;;;4982316;28;20038;-62
2021/05/10 07:15:23;;;;;;;1.23;0.90;;;;;;;;;;4950852;28;20084;-61
2021/05/10 07:18:00;;;;;;;1.95;1.25;;;;;;;;;;4968765;28;20034;-60
2021/05/10 07:20:27;;;;;;;1.67;1.30;;;;;;;;;;4966585;28;20050;-59
2021/05/10 07:22:52;;;;;;;3.65;1.30;;;;;;;;;;4967938;28;20049;-60
2021/05/10 07:25:18;;;;;;;1.67;1.33;;;;;;;;;;4951773;28;20035;-58
2021/05/10 07:27:43;;;;;;;3.58;1.30;;;;;;;;;;4954756;28;20065;-63
2021/05/10 07:30:11;;;;;;;3.75;1.83;;;;;;;;;;4950988;28;20034;-60
2021/05/10 07:32:37;;;;;;;4.43;1.60;;;;;;;;;;4968334;28;20907;-59
2021/05/10 07:35:07;;;;;;;4.70;1.48;;;;;;;;;;4968624;28;20153;-61
2021/05/10 07:37:35;;;;;;;4.68;1.45;;;;;;;;;;4967606;28;21333;-59
2021/05/10 07:40:03;;;;;;;3.08;1.80;;;;;;;;;;4980547;28;20423;-58
2021/05/10 07:42:30;;;;;;;3.55;1.65;;;;;;;;;;4969152;28;20031;-58
2021/05/10 07:44:59;;;;;;;2.80;1.38;;;;;;;;;;4969414;28;20030;-60
2021/05/10 07:47:31;;;;;;;5.45;1.10;;;;;;;;;;4968026;28;20188;-58
2021/05/10 07:50:00;;;;;;;3.05;1.27;;;;;;;;;;4970667;28;20114;-59
2021/05/10 07:52:28;;;;;;;3.90;0.63;;;;;;;;;;4984442;28;20040;-58
2021/05/10 07:54:53;;;;;;;0.80;0.73;;;;;;;;;;4966613;28;20065;-59
2021/05/10 07:57:18;;;;;;;1.73;0.43;;;;;;;;;;4970870;28;20146;-60
2021/05/10 07:59:46;;;;;;;0.80;0.60;;;;;;;;;;4971809;28;20629;-60
2021/05/10 08:02:15;;;;;;;1.75;0.80;;;;;;;;;;4973678;28;20022;-58
2021/05/10 08:04:41;;;;;;;1.13;0.70;;;;;;;;;;4955471;28;20121;-60
2021/05/10 08:07:11;;;;;;;3.90;0.73;;;;;;;;;;4987112;28;20099;-60
2021/05/10 08:09:38;;;;;;;0.60;0.50;;;;;;;;;;4953538;28;20145;-59
2021/05/10 08:12:03;;;;;;;1.27;0.50;;;;;;;;;;4973002;28;20756;-59
2021/05/10 08:14:35;;;;;;;0.60;0.50;;;;;;;;;;4970747;28;20034;-61
2021/05/10 08:17:05;;;;;;;0.90;0.40;;;;;;;;;;4971245;28;20105;-60
2021/05/10 08:19:35;;;;;;;1.65;0.40;;;;;;;;;;4971396;28;20085;-61
2021/05/10 08:22:03;;;;;;;1.13;0.20;;;;;;;;;;4973987;28;20081;-58
2021/05/10 08:24:32;;;;;;;1.65;0.50;;;;;;;;;;4971150;28;20026;-59
2021/05/10 08:27:01;;;;;;;0.98;0.40;;;;;;;;;;4971318;28;20053;-59
2021/05/10 08:29:29;;;;;;;0.40;0.40;;;;;;;;;;4955262;28;20181;-59
2021/05/10 08:32:01;;;;;;;0.70;0.40;;;;;;;;;;4971907;28;20049;-59
2021/05/10 08:34:27;;;;;;;3.28;0.43;;;;;;;;;;4971512;28;20058;-59
2021/05/10 08:36:54;;;;;;;0.35;0.35;;;;;;;;;;4985862;28;20105;-60
2021/05/10 08:39:23;;;;;;;0.95;0.50;;;;;;;;;;4970424;28;20040;-59
2021/05/10 08:41:51;;;;;;;3.17;1.00;;;;;;;;;;4981523;28;20030;-59
2021/05/10 08:44:17;;;;;;;0.88;0.70;;;;;;;;;;4985603;28;20039;-59
2021/05/10 08:46:43;;;;;;;1.17;0.68;;;;;;;;;;4969575;28;20049;-60
2021/05/10 08:49:09;;;;;;;1.20;0.60;;;;;;;;;;4955031;28;20051;-59
2021/05/10 08:51:36;;;;;;;1.10;0.70;;;;;;;;;;4971928;28;20088;-59
2021/05/10 08:54:03;;;;;;;0.98;0.70;;;;;;;;;;4970784;28;20042;-59
2021/05/10 08:56:28;;;;;;;1.08;0.63;;;;;;;;;;4968987;28;20076;-60
2021/05/10 08:58:55;;;;;;;1.23;0.43;;;;;;;;;;4971372;28;20986;-60
2021/05/10 09:01:21;;;;;;;2.00;0.60;;;;;;;;;;4971061;28;20591;-60
2021/05/10 09:03:48;;;;;;;1.55;0.77;;;;;;;;;;4954269;28;20042;-61
2021/05/10 09:06:14;;;;;;;1.95;0.60;;;;;;;;;;4970187;28;20038;-58
2021/05/10 09:08:44;;;;;;;1.10;0.80;;;;;;;;;;4968132;28;20061;-59
2021/05/10 09:11:09;;;;;;;1.50;0.80;;;;;;;;;;4968258;28;20030;-61
2021/05/10 09:13:36;;;;;;;0.55;0.55;;;;;;;;;;4971039;28;20035;-61
2021/05/10 09:16:04;;;;;;;0.75;0.75;;;;;;;;;;4971248;28;20030;-61
2021/05/10 09:18:31;;;;;;;0.50;0.50;;;;;;;;;;4970338;28;20072;-64
2021/05/10 09:21:19;;;;;;;0.82;0.73;;;;;;;;;;4969733;28;20157;-60
2021/05/10 09:23:44;;;;;;;1.25;0.63;;;;;;;;;;4972527;28;20383;-59
2021/05/10 09:26:13;;;;;;;0.80;0.60;;;;;;;;;;4969772;28;20386;-59
2021/05/10 09:28:41;;;;;;;3.83;0.82;;;;;;;;;;4971343;28;20026;-61
2021/05/10 09:31:11;;;;;;;0.30;0.30;;;;;;;;;;4972641;28;20064;-59
2021/05/10 09:33:41;;;;;;;1.67;0.80;;;;;;;;;;4971929;28;20046;-58
2021/05/10 09:36:07;;;;;;;1.40;0.57;;;;;;;;;;4972341;28;21077;-60
2021/05/10 09:38:34;;;;;;;0.73;0.73;;;;;;;;;;4969499;28;20181;-60
2021/05/10 09:41:06;;;;;;;3.03;1.00;;;;;;;;;;4971974;28;20034;-61
2021/05/10 09:43:34;;;;;;;1.50;0.70;;;;;;;;;;4952041;28;20093;-60
2021/05/10 09:46:03;;;;;;;1.75;1.15;;;;;;;;;;4969798;28;20042;-57
2021/05/10 09:48:37;;;;;;;2.42;0.63;;;;;;;;;;4971969;28;20045;-58
2021/05/10 09:51:08;;;;;;;0.68;0.63;;;;;;;;;;4969233;28;20127;-59
2021/05/10 09:53:33;;;;;;;0.73;0.68;;;;;;;;;;4970454;28;20073;-60
2021/05/10 09:56:02;;;;;;;4.07;1.13;;;;;;;;;;4969128;28;20026;-58
2021/05/10 09:58:51;;;;;;;1.92;1.20;;;;;;;;;;4970217;28;20045;-59
2021/05/10 10:01:17;;;;;;;2.38;0.90;;;;;;;;;;4967999;28;20046;-60
2021/05/10 10:03:47;;;;;;;0.60;0.60;;;;;;;;;;4971689;28;20037;-58
2021/05/10 10:06:16;;;;;;;0.45;0.38;;;;;;;;;;4968649;28;20942;-58
2021/05/10 10:08:43;;;;;;;0.43;0.38;;;;;;;;;;4971088;28;20034;-58
2021/05/10 10:11:12;;;;;;;1.40;0.47;;;;;;;;;;4969546;28;20025;-59
2021/05/10 10:13:40;;;;;;;1.27;0.47;;;;;;;;;;4969365;28;20030;-57
2021/05/10 10:16:09;;;;;;;1.13;0.98;;;;;;;;;;4953440;28;20049;-58
2021/05/10 10:18:39;;;;;;;2.00;0.30;;;;;;;;;;4950940;28;20030;-60
2021/05/10 10:21:05;;;;;;;0.60;0.60;;;;;;;;;;4968686;28;20038;-60
2021/05/10 10:23:31;;;;;;;0.75;0.75;;;;;;;;;;4951811;28;20057;-58
2021/05/10 10:26:00;;;;;;;0.75;0.75;;;;;;;;;;4951377;28;20045;-58
2021/05/10 10:28:26;;;;;;;3.42;0.80;;;;;;;;;;4970750;28;20076;-62
2021/05/10 10:31:00;;;;;;;1.77;0.75;;;;;;;;;;4969204;28;20088;-59
2021/05/10 10:33:36;;;;;;;1.50;0.47;;;;;;;;;;4970005;28;20058;-60
2021/05/10 10:36:03;;;;;;;1.90;0.68;;;;;;;;;;4969422;28;20062;-60
2021/05/10 10:38:29;;;;;;;3.03;0.70;;;;;;;;;;4966867;28;20038;-60
2021/05/10 10:41:16;;;;;;;1.50;0.50;;;;;;;;;;4969731;28;20031;-59
2021/05/10 10:43:41;;;;;;;1.10;0.65;;;;;;;;;;4945044;28;20046;-58
2021/05/10 10:46:26;;;;;;;0.32;0.30;;;;;;;;;;4968094;28;20031;-61
2021/05/10 10:48:53;;;;;;;0.57;0.57;;;;;;;;;;4969379;28;20173;-60
2021/05/10 10:51:19;;;;;;;0.70;0.50;;;;;;;;;;4980978;28;20044;-60
2021/05/10 10:53:56;;;;;;;1.25;0.60;;;;;;;;;;4967899;28;20038;-59
2021/05/10 10:56:40;;;;;;;1.77;0.40;;;;;;;;;;4966769;28;20056;-59
2021/05/10 10:59:31;;;;;;;4.57;0.70;;;;;;;;;;4965592;28;20042;-58
2021/05/10 11:02:26;;;;;;;2.97;0.63;;;;;;;;;;4967387;28;20022;-60
2021/05/10 11:05:07;;;;;;;0.40;0.40;;;;;;;;;;4968010;28;20077;-58
2021/05/10 11:07:47;;;;;;;1.02;0.60;;;;;;;;;;4966680;28;20042;-61
2021/05/10 11:10:34;;;;;;;2.22;0.60;;;;;;;;;;4967624;28;20034;-58
2021/05/10 11:12:59;;;;;;;1.40;0.60;;;;;;;;;;4967121;28;20085;-61
2021/05/10 11:15:46;;;;;;;1.00;0.70;;;;;;;;;;4964193;28;20038;-60
2021/05/10 11:18:31;;;;;;;0.88;0.70;;;;;;;;;;4968999;28;20037;-60
2021/05/10 11:21:02;;;;;;;1.65;1.30;;;;;;;;;;4962877;28;20042;-60
2021/05/10 11:23:28;;;;;;;0.93;0.50;;;;;;;;;;4980682;28;20936;-60
2021/05/10 11:25:55;;;;;;;1.15;0.73;;;;;;;;;;4963316;28;20027;-60
2021/05/10 11:28:30;;;;;;;0.60;0.60;;;;;;;;;;4961284;28;20033;-59
2021/05/10 11:31:00;;;;;;;0.77;0.68;;;;;;;;;;4962873;28;20034;-60
2021/05/10 11:33:49;;;;;;;1.73;0.90;;;;;;;;;;4957574;28;20542;-59
2021/05/10 11:36:21;;;;;;;1.30;1.17;;;;;;;;;;4958108;28;20133;-61
2021/05/10 11:38:56;;;;;;;2.90;0.60;;;;;;;;;;4957690;28;20116;-60
2021/05/10 11:41:37;;;;;;;3.22;0.90;;;;;;;;;;4959858;28;21040;-58
2021/05/10 11:44:04;;;;;;;1.02;0.65;;;;;;;;;;4936050;28;20038;-60
2021/05/10 11:46:52;;;;;;;1.85;0.98;;;;;;;;;;4959789;28;20038;-59
2021/05/10 11:49:29;;;;;;;1.08;0.73;;;;;;;;;;4966535;28;20149;-58
2021/05/10 11:51:58;;;;;;;3.67;0.68;;;;;;;;;;4982559;28;20035;-60
2021/05/10 11:54:25;;;;;;;1.17;0.63;;;;;;;;;;4967903;28;20026;-61
2021/05/10 11:56:59;;;;;;;0.57;0.47;;;;;;;;;;4966350;28;20034;-60
2021/05/10 12:02:12;;;;;;;4.10;0.90;;;;;;;;;;4962645;28;20343;-60
2021/05/10 12:04:47;;;;;;;2.78;0.43;;;;;;;;;;4956938;28;20038;-62
2021/05/10 12:07:13;;;;;;;1.08;0.55;;;;;;;;;;4955443;28;20034;-61
2021/05/10 12:09:49;;;;;;;1.23;0.57;;;;;;;;;;4937185;28;20078;-60
2021/05/10 12:12:15;;;;;;;3.22;0.47;;;;;;;;;;4960214;28;20042;-60
2021/05/10 12:14:44;;;;;;;3.08;0.85;;;;;;;;;;4956548;28;20469;-60
2021/05/10 12:17:17;;;;;;;1.77;0.45;;;;;;;;;;4974197;28;20030;-61
2021/05/10 12:20:06;;;;;;;2.47;0.63;;;;;;;;;;4957928;28;20034;-61
2021/05/10 12:22:33;;;;;;;3.28;0.88;;;;;;;;;;4954587;28;20061;-59
2021/05/10 12:25:15;;;;;;;3.80;0.57;;;;;;;;;;4956932;28;21146;-59
2021/05/10 12:27:44;;;;;;;3.78;0.60;;;;;;;;;;4971549;28;20498;-60
2021/05/10 12:30:20;;;;;;;3.15;0.95;;;;;;;;;;4957152;28;20085;-59
2021/05/10 12:32:50;;;;;;;2.55;0.50;;;;;;;;;;4957198;28;20049;-65
2021/05/10 12:35:19;;;;;;;2.53;0.68;;;;;;;;;;4972205;28;20183;-57
2021/05/10 12:37:48;;;;;;;2.50;0.88;;;;;;;;;;4957193;28;20030;-61
2021/05/10 12:40:36;;;;;;;2.05;0.80;;;;;;;;;;4971702;28;20036;-61
2021/05/10 12:43:14;;;;;;;5.55;1.15;;;;;;;;;;4967155;28;20088;-61
2021/05/10 12:45:58;;;;;;;1.88;0.77;;;;;;;;;;4969024;28;20074;-60
2021/05/10 12:48:30;;;;;;;8.93;1.35;;;;;;;;;;4972233;28;20038;-60
2021/05/10 12:51:00;;;;;;;1.80;0.98;;;;;;;;;;4970662;28;21923;-61
2021/05/10 12:53:32;;;;;;;4.47;1.27;;;;;;;;;;4973574;28;20037;-60
2021/05/10 12:56:07;;;;;;;4.95;1.30;;;;;;;;;;4971608;28;20026;-63
2021/05/10 12:58:37;;;;;;;2.95;1.23;;;;;;;;;;4986439;28;20038;-61
2021/05/10 13:01:10;;;;;;;2.47;1.10;;;;;;;;;;4969503;28;20845;-60
2021/05/10 13:03:39;;;;;;;4.38;1.35;;;;;;;;;;4971917;28;20232;-60
2021/05/10 13:06:05;;;;;;;3.55;1.40;;;;;;;;;;4972084;28;20050;-61
2021/05/10 13:08:48;;;;;;;1.92;1.23;;;;;;;;;;4969640;28;20505;-60
2021/05/10 13:11:17;;;;;;;1.63;1.17;;;;;;;;;;4953532;28;20046;-60
2021/05/10 13:13:50;;;;;;;2.78;1.60;;;;;;;;;;4972033;28;20041;-63
2021/05/10 13:16:19;;;;;;;2.25;1.60;;;;;;;;;;4969070;28;20077;-60
2021/05/10 13:19:25;;;;;;;4.82;1.38;;;;;;;;;;4971152;28;20072;-60
2021/05/10 13:31:50;;;;;;;4.50;1.10;;;;;;;;;;4969011;28;20056;-59
2021/05/10 13:34:54;;;;;;;2.63;0.88;;;;;;;;;;4954195;28;20151;-60
2021/05/10 13:37:38;;;;;;;3.47;0.93;;;;;;;;;;4983852;28;20041;-59
2021/05/10 13:40:25;;;;;;;1.90;0.80;;;;;;;;;;4967450;28;20690;-61
2021/05/10 13:43:19;;;;;;;2.72;0.50;;;;;;;;;;4970446;28;20093;-59
2021/05/10 13:46:07;;;;;;;5.03;0.65;;;;;;;;;;4965729;28;20053;-61
2021/05/10 13:48:57;;;;;;;1.60;0.40;;;;;;;;;;4983843;28;20100;-65
2021/05/10 13:51:44;;;;;;;2.70;0.50;;;;;;;;;;4969658;28;20053;-61
2021/05/10 13:54:30;;;;;;;1.45;0.45;;;;;;;;;;4979489;28;20108;-59
2021/05/10 13:57:14;;;;;;;3.50;0.63;;;;;;;;;;4984027;28;20140;-59
2021/05/10 13:59:58;;;;;;;1.02;0.40;;;;;;;;;;4966855;28;20105;-62
2021/05/10 14:02:43;;;;;;;2.40;0.50;;;;;;;;;;4980988;28;20049;-61
2021/05/10 14:05:34;;;;;;;2.53;0.52;;;;;;;;;;4978557;28;20057;-62
2021/05/10 14:08:18;;;;;;;1.73;0.50;;;;;;;;;;4968257;28;20105;-64
2021/05/10 14:11:05;;;;;;;4.38;0.82;;;;;;;;;;4966704;28;20053;-62
2021/05/10 14:13:49;;;;;;;1.30;0.60;;;;;;;;;;4967656;28;20442;-60
2021/05/10 14:16:37;;;;;;;2.90;0.75;;;;;;;;;;4964434;28;20124;-61
2021/05/10 14:19:23;;;;;;;1.63;0.70;;;;;;;;;;4967420;28;20698;-61
2021/05/10 14:22:07;;;;;;;2.13;0.52;;;;;;;;;;4969628;28;20102;-59
2021/05/10 14:24:52;;;;;;;1.33;0.50;;;;;;;;;;4967957;28;20159;-61
2021/05/10 14:27:36;;;;;;;3.45;0.65;;;;;;;;;;4981985;28;20795;-59
2021/05/10 14:30:25;;;;;;;2.97;0.70;;;;;;;;;;4969444;28;20084;-60
2021/05/10 14:33:09;;;;;;;3.53;0.82;;;;;;;;;;4952548;28;20057;-60
2021/05/10 14:35:53;;;;;;;1.35;0.40;;;;;;;;;;4965675;28;20064;-61
2021/05/10 14:38:37;;;;;;;1.48;0.57;;;;;;;;;;4968482;28;20053;-58
2021/05/10 14:41:22;;;;;;;2.15;0.82;;;;;;;;;;4973300;28;20045;-62
2021/05/10 14:44:05;;;;;;;;;;;;;;;;;;4969194;28;20531;-57
2021/05/10 14:46:53;;;;;;;3.70;0.88;;;;;;;;;;4968779;28;21996;-59
2021/05/10 14:49:40;;;;;;;4.30;0.85;;;;;;;;;;4967744;28;20089;-60
2021/05/10 14:52:27;;;;;;;0.60;0.45;;;;;;;;;;4967357;28;20100;-60
2021/05/10 14:55:11;;;;;;;2.00;0.80;;;;;;;;;;4967965;28;20120;-59
2021/05/10 14:57:58;;;;;;;1.48;0.88;;;;;;;;;;4966408;28;20130;-60
2021/05/10 15:00:42;;;;;;;1.90;0.85;;;;;;;;;;4967325;28;20050;-59
2021/05/10 15:03:28;;;;;;;2.45;0.80;;;;;;;;;;4952602;28;22156;-59
2021/05/10 15:06:15;;;;;;;3.95;1.00;;;;;;;;;;4966333;28;20105;-60
2021/05/10 15:09:02;;;;;;;1.58;0.80;;;;;;;;;;4966622;28;20092;-59
2021/05/10 15:11:49;;;;;;;3.03;1.08;;;;;;;;;;4965241;28;20108;-59
2021/05/10 15:14:36;;;;;;;2.95;1.05;;;;;;;;;;4973331;28;20058;-60
2021/05/10 15:17:01;;;;;;;5.10;1.33;;;;;;;;;;4964411;28;20133;-60